MSC Ingrid — HOHA — position and weather

sailwx.info

Track history (hours):
 
Tides and Currents Weather Stations Pressure Air Temp Water Temp Dewpoint Dewpoint Depression Visibility Wind Speed Wind Dir Waves Ship Positions

MSC Ingrid

Last reported at 2015-Jan-15 00:33 UTC. Time now 2015-Jan-25 12:17 UTC.
Position S 13°02' W 038°15'.
Warning: this ship's position is 10 days out of date.

Length 294 m; draft 10.2 m.

Type: Ship (hazmat cat A). MMSI: 354505000.

Date/timePositionNaut miles runAvg speedWind from/ knotsBaromVisibWave heightAir tempDewpointWater temp
2015-Jan-15 00:33S 13°02' W 038°15'1818.2
2015-Jan-14 23:33S 13°07' W 038°33'1111.0
2015-Jan-14 22:33S 12°56' W 038°32'2 1.7
2015-Jan-14 21:32S 12°57' W 038°30'0 0.0
2015-Jan-14 20:32S 12°58' W 038°30'0 0.0
2015-Jan-14 19:32S 12°58' W 038°31'0 0.0
2015-Jan-14 18:32S 12°58' W 038°30'0 0.0
2015-Jan-14 17:32S 12°57' W 038°30'0 0.0
2015-Jan-14 16:32S 12°57' W 038°30'0 0.0
2015-Jan-14 15:32S 12°57' W 038°31'0 0.0
2015-Jan-14 14:32S 12°57' W 038°30'0 0.0
2015-Jan-14 13:32S 12°58' W 038°31'1 0.6
2015-Jan-14 12:34S 12°57' W 038°31'7 6.6
2015-Jan-14 11:34S 13°03' W 038°34'2 1.6
2015-Jan-14 10:32S 13°02' W 038°36'0 0.1
2015-Jan-14 09:32S 13°02' W 038°36'0 0.0
2015-Jan-14 08:32S 13°02' W 038°36'0 0.0
2015-Jan-14 07:32S 13°02' W 038°36'0 0.1
2015-Jan-14 06:32S 13°03' W 038°36'0 0.0
2015-Jan-14 05:32S 13°03' W 038°36'0 0.0
2015-Jan-14 04:32S 13°03' W 038°36'0 0.0
2015-Jan-14 03:29S 13°03' W 038°36'0 0.0
2015-Jan-14 02:29S 13°03' W 038°36'0 0.0
2015-Jan-14 01:32S 13°02' W 038°36'0 0.1
2015-Jan-14 00:32S 13°02' W 038°36'0 0.0
2015-Jan-13 23:32S 13°02' W 038°36'0 0.0
2015-Jan-13 22:32S 13°02' W 038°36'0 0.0
2015-Jan-13 21:32S 13°02' W 038°36'0 0.0
2015-Jan-13 20:32S 13°02' W 038°36'0 0.0
2015-Jan-13 19:32S 13°02' W 038°36'0 0.0
2015-Jan-13 18:32S 13°02' W 038°36'5 5.0
2015-Jan-13 17:34S 13°07' W 038°35'61814.4
2015-Jan-11 22:31S 23°02' W 041°31'1414.7
2015-Jan-11 21:33S 23°11' W 041°42'1615.5
2015-Jan-11 20:33S 23°16' W 041°59'1615.6
2015-Jan-11 19:33S 23°20' W 042°15'1815.6
2015-Jan-11 18:22S 23°26' W 042°34'1316.4
2015-Jan-11 17:33S 23°30' W 042°48'20015.2
2015-Jan-11 04:24S 24°11' W 046°22'1213.9
2015-Jan-11 03:33S 23°60' W 046°19'5 4.6
2015-Jan-11 02:33S 23°55' W 046°21'0 0.0
2015-Jan-10 23:17S 23°55' W 046°21'0 0.0
2015-Jan-10 11:14S 23°55' W 046°21'4 1.3
2015-Jan-10 08:33S 23°58' W 046°18'6 6.4
2015-Jan-10 07:33S 24°03' W 046°22'3 3.0
2015-Jan-10 06:33S 24°06' W 046°22'1 0.2
2015-Jan-10 01:32S 24°07' W 046°22'0 0.0
2015-Jan-09 23:29S 24°07' W 046°22'0 0.0
2015-Jan-09 22:23S 24°07' W 046°22'0 0.0
2015-Jan-09 21:05S 24°07' W 046°22'0 0.0
2015-Jan-09 20:26S 24°07' W 046°22'0 0.1
2015-Jan-09 19:05S 24°07' W 046°22'0 0.0
2015-Jan-09 17:17S 24°07' W 046°22'0 0.0
2015-Jan-09 16:29S 24°07' W 046°22'0 0.0
2015-Jan-09 15:20S 24°07' W 046°22'0 0.0
2015-Jan-09 11:17S 24°07' W 046°22'0 0.0
2015-Jan-09 03:08S 24°07' W 046°22'0 0.0
2015-Jan-08 15:28S 24°07' W 046°22'0 0.0
2015-Jan-08 14:25S 24°07' W 046°22'0 0.0
2015-Jan-08 13:25S 24°07' W 046°22'0 0.0
2015-Jan-08 12:25S 24°07' W 046°22'0 0.0
2015-Jan-08 11:31S 24°07' W 046°22'0 0.0
2015-Jan-08 10:28S 24°07' W 046°22'0 0.1
2015-Jan-08 09:07S 24°07' W 046°22'1 2.2
2015-Jan-08 08:32S 24°08' W 046°22'202 5.9
2015-Jan-06 22:32S 26°58' W 048°22'2315.7
2015-Jan-06 21:06S 27°18' W 048°10'915.5
2015-Jan-06 20:33S 27°26' W 048°12'1615.6
2015-Jan-06 19:33S 27°42' W 048°14'  
Track history (hours):
 
Tides and Currents Weather Stations Pressure Air Temp Water Temp Dewpoint Dewpoint Depression Visibility Wind Speed Wind Dir Waves Ship Positions

MSC Ingrid

Last reported at 2015-Jan-15 00:33 UTC. Time now 2015-Jan-25 12:17 UTC.
Position S 13°02' W 038°15'.
Warning: this ship's position is 10 days out of date.

Length 294 m; draft 10.2 m.

Type: Ship (hazmat cat A). MMSI: 354505000.

Date/timePositionNaut miles runAvg speedWind from/ knotsBaromVisibWave heightAir tempDewpointWater temp
2015-Jan-15 00:33S 13°02' W 038°15'1818.2
2015-Jan-14 23:33S 13°07' W 038°33'1111.0
2015-Jan-14 22:33S 12°56' W 038°32'2 1.7
2015-Jan-14 21:32S 12°57' W 038°30'0 0.0
2015-Jan-14 20:32S 12°58' W 038°30'0 0.0
2015-Jan-14 19:32S 12°58' W 038°31'0 0.0
2015-Jan-14 18:32S 12°58' W 038°30'0 0.0
2015-Jan-14 17:32S 12°57' W 038°30'0 0.0
2015-Jan-14 16:32S 12°57' W 038°30'0 0.0
2015-Jan-14 15:32S 12°57' W 038°31'0 0.0
2015-Jan-14 14:32S 12°57' W 038°30'0 0.0
2015-Jan-14 13:32S 12°58' W 038°31'1 0.6
2015-Jan-14 12:34S 12°57' W 038°31'7 6.6
2015-Jan-14 11:34S 13°03' W 038°34'2 1.6
2015-Jan-14 10:32S 13°02' W 038°36'0 0.1
2015-Jan-14 09:32S 13°02' W 038°36'0 0.0
2015-Jan-14 08:32S 13°02' W 038°36'0 0.0
2015-Jan-14 07:32S 13°02' W 038°36'0 0.1
2015-Jan-14 06:32S 13°03' W 038°36'0 0.0
2015-Jan-14 05:32S 13°03' W 038°36'0 0.0
2015-Jan-14 04:32S 13°03' W 038°36'0 0.0
2015-Jan-14 03:29S 13°03' W 038°36'0 0.0
2015-Jan-14 02:29S 13°03' W 038°36'0 0.0
2015-Jan-14 01:32S 13°02' W 038°36'0 0.1
2015-Jan-14 00:32S 13°02' W 038°36'0 0.0
2015-Jan-13 23:32S 13°02' W 038°36'0 0.0
2015-Jan-13 22:32S 13°02' W 038°36'0 0.0
2015-Jan-13 21:32S 13°02' W 038°36'0 0.0
2015-Jan-13 20:32S 13°02' W 038°36'0 0.0
2015-Jan-13 19:32S 13°02' W 038°36'0 0.0
2015-Jan-13 18:32S 13°02' W 038°36'5 5.0
2015-Jan-13 17:34S 13°07' W 038°35'61814.4
2015-Jan-11 22:31S 23°02' W 041°31'1414.7
2015-Jan-11 21:33S 23°11' W 041°42'1615.5
2015-Jan-11 20:33S 23°16' W 041°59'1615.6
2015-Jan-11 19:33S 23°20' W 042°15'1815.6
2015-Jan-11 18:22S 23°26' W 042°34'1316.4
2015-Jan-11 17:33S 23°30' W 042°48'20015.2
2015-Jan-11 04:24S 24°11' W 046°22'1213.9
2015-Jan-11 03:33S 23°60' W 046°19'5 4.6
2015-Jan-11 02:33S 23°55' W 046°21'0 0.0
2015-Jan-10 23:17S 23°55' W 046°21'0 0.0
2015-Jan-10 11:14S 23°55' W 046°21'4 1.3
2015-Jan-10 08:33S 23°58' W 046°18'6 6.4
2015-Jan-10 07:33S 24°03' W 046°22'3 3.0
2015-Jan-10 06:33S 24°06' W 046°22'1 0.2
2015-Jan-10 01:32S 24°07' W 046°22'0 0.0
2015-Jan-09 23:29S 24°07' W 046°22'0 0.0
2015-Jan-09 22:23S 24°07' W 046°22'0 0.0
2015-Jan-09 21:05S 24°07' W 046°22'0 0.0
2015-Jan-09 20:26S 24°07' W 046°22'0 0.1
2015-Jan-09 19:05S 24°07' W 046°22'0 0.0
2015-Jan-09 17:17S 24°07' W 046°22'0 0.0
2015-Jan-09 16:29S 24°07' W 046°22'0 0.0
2015-Jan-09 15:20S 24°07' W 046°22'0 0.0
2015-Jan-09 11:17S 24°07' W 046°22'0 0.0
2015-Jan-09 03:08S 24°07' W 046°22'0 0.0
2015-Jan-08 15:28S 24°07' W 046°22'0 0.0
2015-Jan-08 14:25S 24°07' W 046°22'0 0.0
2015-Jan-08 13:25S 24°07' W 046°22'0 0.0
2015-Jan-08 12:25S 24°07' W 046°22'0 0.0
2015-Jan-08 11:31S 24°07' W 046°22'0 0.0
2015-Jan-08 10:28S 24°07' W 046°22'0 0.1
2015-Jan-08 09:07S 24°07' W 046°22'1 2.2
2015-Jan-08 08:32S 24°08' W 046°22'202 5.9
2015-Jan-06 22:32S 26°58' W 048°22'2315.7
2015-Jan-06 21:06S 27°18' W 048°10'915.5
2015-Jan-06 20:33S 27°26' W 048°12'1615.6
2015-Jan-06 19:33S 27°42' W 048°14'  

Dump ship's entire track history